Cooke City, Montana
Current Conditions -  °F | °C
As of 9:53 AM on Saturday 25 Oct 2014 (Local Time) from KLVM Reporting Station
Clear Clear  
Wind Chill: 38°   Ceiling: Unl
Heat Index: 38°   Visibility: 10mi
Dew Point: 34°   Wind: 3mph
Humidity: 86%   Direction: 340°NNW
Pressure: 30.02"   Gusts: NA
Location:  45.02°N, 109.94°W
Report Text: KLVM 251553Z AUTO 34003KT 10SM CLR 03/01 A3002 RMK AO2 SLP174 T00330011
Loading
Personal Weather Stations






























Interactive Weather Map
Tropical Storm Tracking
New forecast layout! Learn more

10-Day Weather Forecast

Advertisements
Track Severe Weather on mobile